Αρχική σελίδα
METAR-TAF:

METAR-TAF

Αεροδρόμια :

Teslin, Γιουκόν, Καναδάς

γεωγραφικό πλάτος: 60-10N, γεωγραφικό μήκος: 132-44W, υψόμετρο: 711 μ

Παρών καιρός

Η αναφορά έγινε 2 ώρες και 36 λεπτά πριν, στις 00:00 UTC
Άνεμος 2 kt από μεταβλητές κατευθύνσεις
Θερμοκρασία 6°C
Υγρασία 19%
Πίεση 1018 hPa
Ορατότητα: 48.3 χλμ
Διάσπαρτα νέφη σε ύψος 5500 πόδια
Αρκετά νέφη σε ύψος 21000 πόδια

METAR: CYZW 260000Z VRB02KT 30SM SCT055 BKN210 06/M16 A3007 RMK CU3CI3 LAST STFD OBS/NXT 261600Z SLP224

Χρόνος: 19:36 (02:36 UTC)

Πρόγνωση Καιρού

Η αναφορά έγινε 8 ώρες και 58 λεπτά πριν, στις 17:38 UTC
Η πρόγνωση ισχύει από τις 25 στις 18 UTC έως τις 25 στις 24 UTC
Άνεμος 5 kt από Ν/NA
Ορατότητα: 10 χλμ
Καθαρός ουρανός

TAF: CYZW 251738Z 2518/2524 16005KT P6SM SKC RMK NXT FCST WILL BE ISSUED AT 261745Z

Μετεωρολογικές αναφορές και προγνώσεις για περισσότερα από 4000 αεροδρόμια (δελτία METAR και TAF).

Οι διαθέσιμοι σταθμοί απεικονίζονται στο χάρτη με κίτρινες και κόκκινες κουκκίδες.

Μετακινήστε το ποντίκι πάνω από τις κουκκίδες για να δείτε το όνομα του σταθμού.

Στη συνέχεια, κάντε κλικ για να δείτε τις μετεωρολογικές αναφορές και τις προγνώσεις καιρού.

Για να αλλάξετε το χάρτη: κάντε κλικ στα πράσινα κουμπιά με τον μαύρο σταυρό για να ζουμάρετε, στο πράσινο κουμπί με την παύλα για να αφαιρέσετε το ζουμ ή στα πράσινα βέλη για να αντιπαραβάλλετε χάρτες.


METAR-TAF: